sensor_id;sensor_type;location;lat;lon;timestamp;P1;durP1;ratioP1;P2;durP2;ratioP2
18168;SDS011;49877;50.398;30.324;2022-11-30T00:00:05;23.07;;;14.40;;
18168;SDS011;49877;50.398;30.324;2022-11-30T00:02:35;21.73;;;13.10;;
18168;SDS011;49877;50.398;30.324;2022-11-30T00:05:02;22.77;;;13.90;;
18168;SDS011;49877;50.398;30.324;2022-11-30T00:07:29;24.70;;;13.57;;
18168;SDS011;49877;50.398;30.324;2022-11-30T04:32:08;15.07;;;7.53;;
18168;SDS011;49877;50.398;30.324;2022-11-30T04:34:35;10.93;;;6.90;;
18168;SDS011;49877;50.398;30.324;2022-11-30T04:37:02;10.80;;;6.80;;
18168;SDS011;49877;50.398;30.324;2022-11-30T04:39:31;10.47;;;6.83;;
18168;SDS011;49877;50.398;30.324;2022-11-30T04:41:58;11.63;;;7.17;;
18168;SDS011;49877;50.398;30.324;2022-11-30T04:44:25;9.70;;;6.03;;
18168;SDS011;49877;50.398;30.324;2022-11-30T04:46:51;11.37;;;6.30;;
18168;SDS011;49877;50.398;30.324;2022-11-30T04:49:20;12.00;;;6.60;;
18168;SDS011;49877;50.398;30.324;2022-11-30T04:51:46;9.77;;;6.50;;
18168;SDS011;49877;50.398;30.324;2022-11-30T04:54:13;12.63;;;7.57;;
18168;SDS011;49877;50.398;30.324;2022-11-30T04:56:40;12.97;;;7.30;;
18168;SDS011;49877;50.398;30.324;2022-11-30T04:59:07;12.80;;;7.57;;
18168;SDS011;49877;50.398;30.324;2022-11-30T05:01:33;12.53;;;7.17;;
18168;SDS011;49877;50.398;30.324;2022-11-30T05:04:00;13.37;;;7.60;;
18168;SDS011;49877;50.398;30.324;2022-11-30T05:06:28;11.60;;;7.17;;
18168;SDS011;49877;50.398;30.324;2022-11-30T05:08:55;14.87;;;8.77;;
18168;SDS011;49877;50.398;30.324;2022-11-30T05:11:22;19.17;;;9.83;;
18168;SDS011;49877;50.398;30.324;2022-11-30T05:13:49;13.43;;;7.03;;
18168;SDS011;49877;50.398;30.324;2022-11-30T05:16:15;13.90;;;7.67;;
18168;SDS011;49877;50.398;30.324;2022-11-30T05:18:42;11.77;;;7.03;;
18168;SDS011;49877;50.398;30.324;2022-11-30T05:21:09;12.37;;;7.17;;
18168;SDS011;49877;50.398;30.324;2022-11-30T05:23:37;13.03;;;7.63;;
18168;SDS011;49877;50.398;30.324;2022-11-30T05:26:04;12.17;;;7.17;;
18168;SDS011;49877;50.398;30.324;2022-11-30T05:28:30;12.07;;;7.60;;
18168;SDS011;49877;50.398;30.324;2022-11-30T05:31:01;12.83;;;7.70;;
18168;SDS011;49877;50.398;30.324;2022-11-30T05:33:28;13.00;;;7.83;;
18168;SDS011;49877;50.398;30.324;2022-11-30T05:35:55;13.70;;;8.33;;
18168;SDS011;49877;50.398;30.324;2022-11-30T05:38:22;15.30;;;7.53;;
18168;SDS011;49877;50.398;30.324;2022-11-30T05:40:50;13.43;;;8.17;;
18168;SDS011;49877;50.398;30.324;2022-11-30T05:43:17;13.47;;;8.30;;
18168;SDS011;49877;50.398;30.324;2022-11-30T05:45:44;16.50;;;9.60;;
18168;SDS011;49877;50.398;30.324;2022-11-30T05:48:10;14.60;;;9.17;;
18168;SDS011;49877;50.398;30.324;2022-11-30T05:50:37;15.10;;;9.43;;
18168;SDS011;49877;50.398;30.324;2022-11-30T05:53:04;15.60;;;8.57;;
18168;SDS011;49877;50.398;30.324;2022-11-30T05:55:31;13.53;;;8.87;;
18168;SDS011;49877;50.398;30.324;2022-11-30T05:58:00;15.60;;;9.63;;
18168;SDS011;49877;50.398;30.324;2022-11-30T06:00:27;16.77;;;9.47;;
18168;SDS011;49877;50.398;30.324;2022-11-30T06:02:54;15.37;;;9.73;;
18168;SDS011;49877;50.398;30.324;2022-11-30T06:05:22;13.73;;;8.67;;
18168;SDS011;49877;50.398;30.324;2022-11-30T06:07:48;17.47;;;9.57;;
18168;SDS011;49877;50.398;30.324;2022-11-30T06:10:15;16.50;;;9.67;;
18168;SDS011;49877;50.398;30.324;2022-11-30T06:12:42;14.77;;;9.53;;
18168;SDS011;49877;50.398;30.324;2022-11-30T06:15:11;15.27;;;9.57;;
18168;SDS011;49877;50.398;30.324;2022-11-30T06:17:37;16.80;;;10.13;;
18168;SDS011;49877;50.398;30.324;2022-11-30T06:20:05;21.10;;;10.17;;
18168;SDS011;49877;50.398;30.324;2022-11-30T10:21:54;26.87;;;15.40;;
18168;SDS011;49877;50.398;30.324;2022-11-30T10:24:35;25.57;;;14.87;;
18168;SDS011;49877;50.398;30.324;2022-11-30T10:27:16;24.20;;;13.70;;
18168;SDS011;49877;50.398;30.324;2022-11-30T10:29:43;24.63;;;14.40;;
18168;SDS011;49877;50.398;30.324;2022-11-30T10:32:12;25.90;;;14.00;;
18168;SDS011;49877;50.398;30.324;2022-11-30T10:34:43;26.27;;;15.57;;
18168;SDS011;49877;50.398;30.324;2022-11-30T10:37:17;25.63;;;14.37;;
18168;SDS011;49877;50.398;30.324;2022-11-30T10:39:50;22.17;;;13.13;;
18168;SDS011;49877;50.398;30.324;2022-11-30T10:42:24;22.70;;;13.17;;
18168;SDS011;49877;50.398;30.324;2022-11-30T10:44:58;24.33;;;13.73;;
18168;SDS011;49877;50.398;30.324;2022-11-30T10:47:29;23.03;;;13.60;;
18168;SDS011;49877;50.398;30.324;2022-11-30T10:50:01;30.50;;;16.70;;
18168;SDS011;49877;50.398;30.324;2022-11-30T10:52:30;33.03;;;16.93;;
18168;SDS011;49877;50.398;30.324;2022-11-30T10:55:02;25.93;;;14.57;;
18168;SDS011;49877;50.398;30.324;2022-11-30T10:57:37;30.00;;;15.90;;
18168;SDS011;49877;50.398;30.324;2022-11-30T11:00:04;28.33;;;14.07;;
18168;SDS011;49877;50.398;30.324;2022-11-30T11:02:37;26.90;;;12.87;;
18168;SDS011;49877;50.398;30.324;2022-11-30T11:05:19;24.13;;;13.30;;
18168;SDS011;49877;50.398;30.324;2022-11-30T11:07:50;28.17;;;14.03;;
18168;SDS011;49877;50.398;30.324;2022-11-30T11:10:24;30.53;;;13.90;;
18168;SDS011;49877;50.398;30.324;2022-11-30T11:12:55;33.03;;;15.97;;
18168;SDS011;49877;50.398;30.324;2022-11-30T11:15:23;32.83;;;15.80;;
18168;SDS011;49877;50.398;30.324;2022-11-30T11:17:51;35.03;;;16.30;;
18168;SDS011;49877;50.398;30.324;2022-11-30T11:20:27;41.47;;;18.07;;
18168;SDS011;49877;50.398;30.324;2022-11-30T11:22:57;38.57;;;18.03;;
18168;SDS011;49877;50.398;30.324;2022-11-30T11:25:25;40.97;;;17.43;;
18168;SDS011;49877;50.398;30.324;2022-11-30T11:27:58;37.33;;;15.40;;
18168;SDS011;49877;50.398;30.324;2022-11-30T11:30:30;27.27;;;15.13;;
18168;SDS011;49877;50.398;30.324;2022-11-30T11:32:59;30.33;;;15.40;;
18168;SDS011;49877;50.398;30.324;2022-11-30T11:35:31;27.73;;;13.80;;
18168;SDS011;49877;50.398;30.324;2022-11-30T11:38:01;30.73;;;14.43;;
18168;SDS011;49877;50.398;30.324;2022-11-30T11:40:29;26.13;;;13.77;;
18168;SDS011;49877;50.398;30.324;2022-11-30T11:42:56;36.67;;;16.73;;
18168;SDS011;49877;50.398;30.324;2022-11-30T11:45:25;34.53;;;18.10;;
18168;SDS011;49877;50.398;30.324;2022-11-30T11:47:57;33.40;;;15.90;;
18168;SDS011;49877;50.398;30.324;2022-11-30T11:50:29;34.03;;;16.57;;
18168;SDS011;49877;50.398;30.324;2022-11-30T11:53:10;35.00;;;15.63;;
18168;SDS011;49877;50.398;30.324;2022-11-30T11:55:46;44.20;;;19.23;;
18168;SDS011;49877;50.398;30.324;2022-11-30T11:58:21;42.63;;;18.87;;
18168;SDS011;49877;50.398;30.324;2022-11-30T12:00:56;38.73;;;18.17;;
18168;SDS011;49877;50.398;30.324;2022-11-30T12:03:26;37.07;;;16.43;;
18168;SDS011;49877;50.398;30.324;2022-11-30T12:06:01;42.80;;;17.37;;
18168;SDS011;49877;50.398;30.324;2022-11-30T12:08:34;45.60;;;19.13;;
18168;SDS011;49877;50.398;30.324;2022-11-30T12:11:06;45.03;;;18.93;;
18168;SDS011;49877;50.398;30.324;2022-11-30T12:13:37;41.37;;;17.53;;
18168;SDS011;49877;50.398;30.324;2022-11-30T12:16:09;30.20;;;14.63;;
18168;SDS011;49877;50.398;30.324;2022-11-30T12:18:51;29.93;;;14.33;;
18168;SDS011;49877;50.398;30.324;2022-11-30T12:21:24;33.27;;;15.93;;
18168;SDS011;49877;50.398;30.324;2022-11-30T12:24:05;30.30;;;16.20;;
18168;SDS011;49877;50.398;30.324;2022-11-30T12:26:54;31.63;;;14.33;;
18168;SDS011;49877;50.398;30.324;2022-11-30T12:29:31;25.33;;;13.43;;
18168;SDS011;49877;50.398;30.324;2022-11-30T12:32:12;24.53;;;13.70;;
18168;SDS011;49877;50.398;30.324;2022-11-30T12:34:53;27.33;;;14.53;;
18168;SDS011;49877;50.398;30.324;2022-11-30T12:37:29;24.33;;;13.17;;
18168;SDS011;49877;50.398;30.324;2022-11-30T12:40:07;26.67;;;12.93;;
18168;SDS011;49877;50.398;30.324;2022-11-30T12:42:41;23.20;;;12.63;;
18168;SDS011;49877;50.398;30.324;2022-11-30T12:45:12;22.37;;;13.03;;
18168;SDS011;49877;50.398;30.324;2022-11-30T12:47:47;25.23;;;13.47;;
18168;SDS011;49877;50.398;30.324;2022-11-30T12:50:28;28.87;;;13.53;;
18168;SDS011;49877;50.398;30.324;2022-11-30T12:53:08;31.90;;;14.93;;
18168;SDS011;49877;50.398;30.324;2022-11-30T12:55:44;31.60;;;14.03;;
18168;SDS011;49877;50.398;30.324;2022-11-30T12:58:20;34.90;;;13.67;;
18168;SDS011;49877;50.398;30.324;2022-11-30T13:00:54;29.33;;;14.50;;
18168;SDS011;49877;50.398;30.324;2022-11-30T13:03:36;27.30;;;13.30;;
18168;SDS011;49877;50.398;30.324;2022-11-30T13:06:09;34.17;;;15.00;;
18168;SDS011;49877;50.398;30.324;2022-11-30T13:08:45;28.23;;;14.30;;
18168;SDS011;49877;50.398;30.324;2022-11-30T13:11:19;26.87;;;13.80;;
18168;SDS011;49877;50.398;30.324;2022-11-30T13:13:50;29.17;;;14.30;;
18168;SDS011;49877;50.398;30.324;2022-11-30T13:16:19;28.63;;;14.87;;
18168;SDS011;49877;50.398;30.324;2022-11-30T13:18:49;24.00;;;13.60;;
18168;SDS011;49877;50.398;30.324;2022-11-30T13:21:19;26.30;;;13.40;;
18168;SDS011;49877;50.398;30.324;2022-11-30T13:23:53;25.67;;;13.00;;
18168;SDS011;49877;50.398;30.324;2022-11-30T13:26:29;23.93;;;11.90;;
18168;SDS011;49877;50.398;30.324;2022-11-30T13:29:04;28.20;;;12.77;;
18168;SDS011;49877;50.398;30.324;2022-11-30T13:31:43;24.30;;;13.30;;
18168;SDS011;49877;50.398;30.324;2022-11-30T13:34:23;23.27;;;12.83;;
18168;SDS011;49877;50.398;30.324;2022-11-30T13:36:58;25.90;;;11.97;;
18168;SDS011;49877;50.398;30.324;2022-11-30T13:39:27;22.47;;;11.17;;
18168;SDS011;49877;50.398;30.324;2022-11-30T13:45:17;20.43;;;12.30;;
18168;SDS011;49877;50.398;30.324;2022-11-30T13:47:51;24.70;;;12.30;;
18168;SDS011;49877;50.398;30.324;2022-11-30T13:50:22;33.70;;;13.33;;
18168;SDS011;49877;50.398;30.324;2022-11-30T18:33:48;44.37;;;23.67;;
18168;SDS011;49877;50.398;30.324;2022-11-30T18:36:19;43.80;;;23.67;;
18168;SDS011;49877;50.398;30.324;2022-11-30T18:38:46;41.23;;;22.03;;
18168;SDS011;49877;50.398;30.324;2022-11-30T18:41:12;44.40;;;23.80;;
18168;SDS011;49877;50.398;30.324;2022-11-30T18:43:39;47.17;;;23.10;;
18168;SDS011;49877;50.398;30.324;2022-11-30T18:46:07;45.23;;;23.03;;
18168;SDS011;49877;50.398;30.324;2022-11-30T18:48:35;44.80;;;21.93;;
18168;SDS011;49877;50.398;30.324;2022-11-30T18:51:11;45.07;;;21.77;;
18168;SDS011;49877;50.398;30.324;2022-11-30T18:53:40;43.00;;;22.53;;
18168;SDS011;49877;50.398;30.324;2022-11-30T18:56:07;41.07;;;20.87;;
18168;SDS011;49877;50.398;30.324;2022-11-30T18:58:37;38.63;;;20.43;;
18168;SDS011;49877;50.398;30.324;2022-11-30T19:01:07;38.53;;;20.33;;
18168;SDS011;49877;50.398;30.324;2022-11-30T19:03:34;45.17;;;24.53;;
18168;SDS011;49877;50.398;30.324;2022-11-30T19:06:01;42.63;;;20.83;;
18168;SDS011;49877;50.398;30.324;2022-11-30T19:08:31;42.37;;;20.63;;
18168;SDS011;49877;50.398;30.324;2022-11-30T19:11:01;37.70;;;20.30;;
18168;SDS011;49877;50.398;30.324;2022-11-30T19:13:28;44.47;;;21.33;;
18168;SDS011;49877;50.398;30.324;2022-11-30T19:15:55;41.77;;;21.57;;
18168;SDS011;49877;50.398;30.324;2022-11-30T19:18:26;39.67;;;21.17;;
18168;SDS011;49877;50.398;30.324;2022-11-30T19:20:53;41.23;;;21.30;;
18168;SDS011;49877;50.398;30.324;2022-11-30T19:23:20;40.07;;;22.07;;
18168;SDS011;49877;50.398;30.324;2022-11-30T19:25:48;43.13;;;22.37;;
18168;SDS011;49877;50.398;30.324;2022-11-30T19:28:15;43.97;;;21.07;;
18168;SDS011;49877;50.398;30.324;2022-11-30T19:30:42;41.37;;;21.57;;
18168;SDS011;49877;50.398;30.324;2022-11-30T19:33:09;40.43;;;21.53;;
18168;SDS011;49877;50.398;30.324;2022-11-30T19:35:38;44.17;;;24.10;;
18168;SDS011;49877;50.398;30.324;2022-11-30T19:38:05;57.57;;;28.67;;
18168;SDS011;49877;50.398;30.324;2022-11-30T19:40:31;48.43;;;25.03;;
18168;SDS011;49877;50.398;30.324;2022-11-30T19:43:00;49.83;;;27.47;;
18168;SDS011;49877;50.398;30.324;2022-11-30T19:45:26;50.17;;;25.13;;
18168;SDS011;49877;50.398;30.324;2022-11-30T19:47:53;46.67;;;23.47;;
18168;SDS011;49877;50.398;30.324;2022-11-30T19:50:20;54.63;;;28.83;;
18168;SDS011;49877;50.398;30.324;2022-11-30T19:52:48;48.73;;;25.73;;
18168;SDS011;49877;50.398;30.324;2022-11-30T19:55:15;51.50;;;26.13;;
18168;SDS011;49877;50.398;30.324;2022-11-30T19:57:42;50.33;;;26.10;;
18168;SDS011;49877;50.398;30.324;2022-11-30T20:00:11;47.73;;;24.77;;
18168;SDS011;49877;50.398;30.324;2022-11-30T20:02:38;44.80;;;23.83;;
18168;SDS011;49877;50.398;30.324;2022-11-30T20:05:05;46.17;;;22.80;;
18168;SDS011;49877;50.398;30.324;2022-11-30T20:07:33;40.17;;;20.53;;
18168;SDS011;49877;50.398;30.324;2022-11-30T20:10:00;38.50;;;19.93;;
18168;SDS011;49877;50.398;30.324;2022-11-30T20:12:27;43.00;;;21.70;;
18168;SDS011;49877;50.398;30.324;2022-11-30T20:14:53;37.77;;;20.50;;
18168;SDS011;49877;50.398;30.324;2022-11-30T20:17:22;39.07;;;19.23;;
18168;SDS011;49877;50.398;30.324;2022-11-30T20:19:48;39.40;;;19.13;;
18168;SDS011;49877;50.398;30.324;2022-11-30T20:22:15;41.33;;;19.23;;
18168;SDS011;49877;50.398;30.324;2022-11-30T20:24:42;38.23;;;20.27;;
18168;SDS011;49877;50.398;30.324;2022-11-30T20:27:09;37.33;;;17.87;;
18168;SDS011;49877;50.398;30.324;2022-11-30T20:29:35;43.60;;;18.33;;
18168;SDS011;49877;50.398;30.324;2022-11-30T20:32:02;37.50;;;18.03;;
18168;SDS011;49877;50.398;30.324;2022-11-30T20:34:31;41.07;;;18.67;;
18168;SDS011;49877;50.398;30.324;2022-11-30T20:37:00;39.67;;;19.53;;
18168;SDS011;49877;50.398;30.324;2022-11-30T20:39:27;36.53;;;18.20;;
18168;SDS011;49877;50.398;30.324;2022-11-30T20:41:54;39.60;;;21.17;;
18168;SDS011;49877;50.398;30.324;2022-11-30T20:44:20;44.53;;;23.03;;
18168;SDS011;49877;50.398;30.324;2022-11-30T20:46:47;37.23;;;19.30;;
18168;SDS011;49877;50.398;30.324;2022-11-30T20:49:14;37.50;;;19.10;;
18168;SDS011;49877;50.398;30.324;2022-11-30T20:51:43;39.97;;;18.80;;
18168;SDS011;49877;50.398;30.324;2022-11-30T20:54:11;37.77;;;18.90;;
18168;SDS011;49877;50.398;30.324;2022-11-30T20:56:38;40.77;;;18.57;;
18168;SDS011;49877;50.398;30.324;2022-11-30T20:59:07;38.07;;;19.47;;
18168;SDS011;49877;50.398;30.324;2022-11-30T21:01:39;40.93;;;19.03;;
18168;SDS011;49877;50.398;30.324;2022-11-30T21:04:06;40.00;;;19.00;;
18168;SDS011;49877;50.398;30.324;2022-11-30T21:06:33;46.00;;;22.47;;
18168;SDS011;49877;50.398;30.324;2022-11-30T21:09:01;45.30;;;21.33;;
18168;SDS011;49877;50.398;30.324;2022-11-30T21:11:29;41.83;;;20.47;;
18168;SDS011;49877;50.398;30.324;2022-11-30T21:13:56;43.27;;;20.50;;
18168;SDS011;49877;50.398;30.324;2022-11-30T21:16:24;38.97;;;20.10;;
18168;SDS011;49877;50.398;30.324;2022-11-30T21:18:52;38.37;;;18.50;;
18168;SDS011;49877;50.398;30.324;2022-11-30T21:21:20;41.37;;;20.33;;
18168;SDS011;49877;50.398;30.324;2022-11-30T21:23:48;41.57;;;19.13;;
18168;SDS011;49877;50.398;30.324;2022-11-30T21:26:18;39.27;;;19.37;;
18168;SDS011;49877;50.398;30.324;2022-11-30T21:28:46;39.33;;;18.40;;
18168;SDS011;49877;50.398;30.324;2022-11-30T21:31:16;39.33;;;18.77;;
18168;SDS011;49877;50.398;30.324;2022-11-30T21:33:43;41.17;;;20.00;;
18168;SDS011;49877;50.398;30.324;2022-11-30T21:36:12;44.63;;;20.20;;
18168;SDS011;49877;50.398;30.324;2022-11-30T21:38:40;42.10;;;19.47;;
18168;SDS011;49877;50.398;30.324;2022-11-30T21:41:08;39.87;;;18.93;;
18168;SDS011;49877;50.398;30.324;2022-11-30T21:43:37;34.80;;;19.37;;
18168;SDS011;49877;50.398;30.324;2022-11-30T21:46:06;37.50;;;17.77;;
18168;SDS011;49877;50.398;30.324;2022-11-30T21:48:37;38.80;;;19.13;;
18168;SDS011;49877;50.398;30.324;2022-11-30T21:51:05;37.50;;;19.17;;
18168;SDS011;49877;50.398;30.324;2022-11-30T21:53:34;42.03;;;19.50;;
18168;SDS011;49877;50.398;30.324;2022-11-30T21:56:02;38.87;;;19.00;;
18168;SDS011;49877;50.398;30.324;2022-11-30T21:58:30;43.27;;;24.03;;
18168;SDS011;49877;50.398;30.324;2022-11-30T22:00:59;20.40;;;9.77;;
18168;SDS011;49877;50.398;30.324;2022-11-30T22:03:27;18.77;;;9.40;;
18168;SDS011;49877;50.398;30.324;2022-11-30T22:05:58;17.33;;;8.00;;
18168;SDS011;49877;50.398;30.324;2022-11-30T22:08:26;16.40;;;8.33;;
18168;SDS011;49877;50.398;30.324;2022-11-30T22:10:52;18.87;;;8.27;;
18168;SDS011;49877;50.398;30.324;2022-11-30T22:13:20;16.90;;;8.10;;
18168;SDS011;49877;50.398;30.324;2022-11-30T22:15:46;18.67;;;8.70;;
18168;SDS011;49877;50.398;30.324;2022-11-30T22:18:14;14.97;;;8.60;;
18168;SDS011;49877;50.398;30.324;2022-11-30T22:20:41;16.30;;;8.93;;
18168;SDS011;49877;50.398;30.324;2022-11-30T22:23:08;17.50;;;8.20;;
18168;SDS011;49877;50.398;30.324;2022-11-30T22:25:35;18.23;;;8.80;;
18168;SDS011;49877;50.398;30.324;2022-11-30T22:28:01;17.20;;;8.67;;
18168;SDS011;49877;50.398;30.324;2022-11-30T22:30:28;15.93;;;8.80;;
18168;SDS011;49877;50.398;30.324;2022-11-30T22:32:55;17.13;;;8.33;;
18168;SDS011;49877;50.398;30.324;2022-11-30T22:35:23;22.33;;;9.33;;
18168;SDS011;49877;50.398;30.324;2022-11-30T22:37:50;16.87;;;8.77;;
18168;SDS011;49877;50.398;30.324;2022-11-30T22:40:17;15.93;;;9.00;;
18168;SDS011;49877;50.398;30.324;2022-11-30T22:42:44;16.33;;;8.40;;
18168;SDS011;49877;50.398;30.324;2022-11-30T22:45:10;19.93;;;8.83;;
18168;SDS011;49877;50.398;30.324;2022-11-30T22:47:37;18.07;;;8.50;;
18168;SDS011;49877;50.398;30.324;2022-11-30T22:50:04;16.23;;;8.70;;
18168;SDS011;49877;50.398;30.324;2022-11-30T22:52:33;17.50;;;8.57;;
18168;SDS011;49877;50.398;30.324;2022-11-30T22:55:00;15.10;;;8.63;;
18168;SDS011;49877;50.398;30.324;2022-11-30T22:57:26;14.60;;;8.57;;
18168;SDS011;49877;50.398;30.324;2022-11-30T22:59:53;17.53;;;9.00;;
18168;SDS011;49877;50.398;30.324;2022-11-30T23:02:20;16.17;;;7.83;;
18168;SDS011;49877;50.398;30.324;2022-11-30T23:04:47;15.80;;;8.27;;
18168;SDS011;49877;50.398;30.324;2022-11-30T23:07:13;18.23;;;8.13;;
18168;SDS011;49877;50.398;30.324;2022-11-30T23:09:42;17.17;;;8.47;;
18168;SDS011;49877;50.398;30.324;2022-11-30T23:12:08;16.00;;;8.53;;
18168;SDS011;49877;50.398;30.324;2022-11-30T23:14:35;15.67;;;9.00;;
18168;SDS011;49877;50.398;30.324;2022-11-30T23:17:02;15.20;;;9.07;;
18168;SDS011;49877;50.398;30.324;2022-11-30T23:19:29;17.03;;;8.83;;
18168;SDS011;49877;50.398;30.324;2022-11-30T23:21:55;16.73;;;9.33;;
18168;SDS011;49877;50.398;30.324;2022-11-30T23:24:22;18.57;;;9.03;;
18168;SDS011;49877;50.398;30.324;2022-11-30T23:26:50;18.30;;;9.17;;
18168;SDS011;49877;50.398;30.324;2022-11-30T23:29:17;15.20;;;8.97;;
18168;SDS011;49877;50.398;30.324;2022-11-30T23:31:44;15.03;;;8.73;;
18168;SDS011;49877;50.398;30.324;2022-11-30T23:34:13;19.50;;;9.60;;
18168;SDS011;49877;50.398;30.324;2022-11-30T23:36:41;22.83;;;11.83;;
18168;SDS011;49877;50.398;30.324;2022-11-30T23:39:08;20.77;;;10.60;;
18168;SDS011;49877;50.398;30.324;2022-11-30T23:41:37;20.20;;;9.87;;
18168;SDS011;49877;50.398;30.324;2022-11-30T23:44:06;16.17;;;9.23;;
18168;SDS011;49877;50.398;30.324;2022-11-30T23:46:33;14.87;;;8.90;;
18168;SDS011;49877;50.398;30.324;2022-11-30T23:49:00;19.60;;;9.07;;
18168;SDS011;49877;50.398;30.324;2022-11-30T23:51:27;18.27;;;9.83;;
18168;SDS011;49877;50.398;30.324;2022-11-30T23:53:54;17.07;;;9.10;;
18168;SDS011;49877;50.398;30.324;2022-11-30T23:56:21;16.87;;;8.97;;
18168;SDS011;49877;50.398;30.324;2022-11-30T23:58:48;16.37;;;9.27;;
